Time;durP1;ratioP1;P1;durP2;ratioP2;P2;SDS_P1;SDS_P2;PMS_P1;PMS_P2;Temp;Humidity;BMP_temperature;BMP_pressure;BME280_temperature;BME280_humidity;BME280_pressure;Samples;Min_cycle;Max_cycle;Signal;HPM_P1;HPM_P2
2021/06/25 00:02:10;;;;;;;10.33;9.37;;;19.40;99.90;;;;;;5031457;28;20832;-84
2021/06/25 00:04:35;;;;;;;11.97;10.20;;;19.30;99.90;;;;;;5013703;28;20169;-83
2021/06/25 00:07:01;;;;;;;10.37;9.10;;;19.30;99.90;;;;;;4999658;28;20575;-85
2021/06/25 00:09:27;;;;;;;11.23;9.63;;;19.30;99.90;;;;;;5038959;28;20166;-85
2021/06/25 00:11:53;;;;;;;15.30;10.00;;;19.20;99.90;;;;;;5017708;28;20229;-83
2021/06/25 00:14:22;;;;;;;11.60;10.40;;;19.20;99.90;;;;;;5017532;28;20626;-84
2021/06/25 00:16:50;;;;;;;11.70;10.70;;;19.20;99.90;;;;;;5017827;28;20253;-84
2021/06/25 00:19:16;;;;;;;10.83;9.73;;;19.10;99.90;;;;;;5017393;28;20584;-83
2021/06/25 00:21:42;;;;;;;11.60;10.40;;;19.10;99.90;;;;;;5033945;28;21002;-83
2021/06/25 00:24:08;;;;;;;14.47;10.80;;;19.00;99.90;;;;;;5035163;28;20571;-84
2021/06/25 00:26:34;;;;;;;14.57;10.20;;;19.00;99.90;;;;;;5033966;28;20521;-83
2021/06/25 00:28:59;;;;;;;10.27;9.33;;;19.00;99.90;;;;;;5016975;28;20185;-83
2021/06/25 00:31:25;;;;;;;10.07;9.10;;;18.90;99.90;;;;;;5035155;28;20190;-83
2021/06/25 00:33:51;;;;;;;10.70;9.67;;;18.90;99.90;;;;;;5033892;28;20253;-84
2021/06/25 00:36:17;;;;;;;11.63;10.30;;;18.90;99.90;;;;;;5017181;28;20170;-83
2021/06/25 00:38:42;;;;;;;12.43;11.23;;;18.90;99.90;;;;;;5034607;28;20170;-83
2021/06/25 00:41:08;;;;;;;11.67;10.33;;;18.80;99.90;;;;;;5017161;28;20194;-84
2021/06/25 00:43:36;;;;;;;11.20;10.10;;;18.80;99.90;;;;;;5035326;28;20166;-83
2021/06/25 00:46:02;;;;;;;11.13;10.13;;;18.80;99.90;;;;;;5020310;28;20174;-84
2021/06/25 00:48:28;;;;;;;12.73;11.47;;;18.70;99.90;;;;;;5034620;28;20916;-83
2021/06/25 00:50:53;;;;;;;15.03;11.37;;;18.70;99.90;;;;;;5033359;28;20186;-84
2021/06/25 00:53:19;;;;;;;11.13;9.80;;;18.70;99.90;;;;;;5000457;28;20174;-83
2021/06/25 00:55:45;;;;;;;11.43;10.30;;;18.70;99.90;;;;;;5032924;28;20158;-82
2021/06/25 00:58:13;;;;;;;11.03;9.90;;;18.70;99.90;;;;;;5034036;28;20173;-83
2021/06/25 01:00:39;;;;;;;13.60;11.73;;;18.70;99.90;;;;;;5016783;28;20280;-83
2021/06/25 01:03:05;;;;;;;12.17;10.90;;;18.60;99.90;;;;;;5034285;28;20683;-84
2021/06/25 01:05:31;;;;;;;12.80;11.60;;;18.60;99.90;;;;;;5034531;28;20584;-84
2021/06/25 01:07:58;;;;;;;13.90;11.30;;;18.60;99.90;;;;;;5016959;28;20564;-84
2021/06/25 01:10:26;;;;;;;11.37;10.20;;;18.60;99.90;;;;;;5033976;28;21166;-85
2021/06/25 01:12:52;;;;;;;13.53;11.70;;;18.50;99.90;;;;;;5034986;28;20573;-85
2021/06/25 01:15:18;;;;;;;11.43;10.33;;;18.50;99.90;;;;;;5042196;28;20656;-85
2021/06/25 01:17:45;;;;;;;14.63;11.30;;;18.50;99.90;;;;;;5041237;28;20170;-85
2021/06/25 01:20:17;;;;;;;12.87;11.53;;;18.50;99.90;;;;;;5033355;28;20971;-85
2021/06/25 01:22:43;;;;;;;13.67;10.73;;;18.40;99.90;;;;;;5037160;28;20716;-84
2021/06/25 01:25:21;;;;;;;11.80;10.70;;;18.40;99.90;;;;;;5018992;28;20935;-83
2021/06/25 01:27:51;;;;;;;12.77;11.57;;;18.40;99.90;;;;;;5028192;28;20573;-84
2021/06/25 01:30:20;;;;;;;12.13;11.03;;;18.40;99.90;;;;;;5016578;28;21065;-84
2021/06/25 01:32:47;;;;;;;15.00;12.93;;;18.30;99.90;;;;;;5034103;28;21237;-83
2021/06/25 01:35:13;;;;;;;13.23;11.97;;;18.30;99.90;;;;;;5035981;28;20591;-83
2021/06/25 01:37:40;;;;;;;13.40;12.00;;;18.30;99.90;;;;;;5040250;28;20589;-81
2021/06/25 01:40:11;;;;;;;12.47;11.20;;;18.30;99.90;;;;;;5054304;28;20612;-83
2021/06/25 01:42:38;;;;;;;14.33;12.90;;;18.20;99.90;;;;;;5043199;28;20656;-83
2021/06/25 01:45:14;;;;;;;12.97;11.73;;;18.20;99.90;;;;;;5034495;28;20596;-84
2021/06/25 01:47:41;;;;;;;12.93;10.53;;;18.20;99.90;;;;;;5033905;28;20652;-83
2021/06/25 01:50:13;;;;;;;14.10;12.80;;;18.20;99.90;;;;;;5037239;28;20639;-84
2021/06/25 01:52:47;;;;;;;15.13;13.27;;;18.20;99.90;;;;;;5022642;28;20573;-83
2021/06/25 01:55:13;;;;;;;15.03;11.87;;;18.10;99.90;;;;;;5037592;28;20608;-84
2021/06/25 01:57:39;;;;;;;14.33;12.87;;;18.10;99.90;;;;;;5037581;28;20972;-85
2021/06/25 02:00:07;;;;;;;14.87;12.67;;;18.10;99.90;;;;;;5021918;28;20616;-85
2021/06/25 02:02:35;;;;;;;15.57;14.00;;;18.10;99.90;;;;;;5035324;28;20974;-85
2021/06/25 02:05:03;;;;;;;13.43;12.10;;;18.10;99.90;;;;;;5034074;28;20583;-85
2021/06/25 02:07:28;;;;;;;16.37;13.90;;;18.10;99.90;;;;;;5040752;28;20568;-86
2021/06/25 02:09:56;;;;;;;18.60;16.80;;;18.10;99.90;;;;;;5041661;28;20650;-86
2021/06/25 02:12:22;;;;;;;19.57;17.60;;;18.00;99.90;;;;;;5041205;28;20173;-86
2021/06/25 02:14:47;;;;;;;25.10;22.80;;;18.10;99.90;;;;;;5041121;28;20668;-84
2021/06/25 02:17:16;;;;;;;26.77;24.50;;;18.00;99.90;;;;;;5021472;28;20196;-84
2021/06/25 02:19:42;;;;;;;24.70;22.17;;;18.00;99.90;;;;;;5038399;28;20178;-85
2021/06/25 02:22:07;;;;;;;19.40;17.70;;;18.00;99.90;;;;;;5038580;28;21038;-85
2021/06/25 02:24:33;;;;;;;18.57;16.83;;;18.00;99.90;;;;;;5035038;28;20576;-83
2021/06/25 02:26:59;;;;;;;18.17;16.57;;;18.00;99.90;;;;;;5032843;28;20174;-83
2021/06/25 02:29:28;;;;;;;20.03;18.13;;;18.00;99.90;;;;;;5031860;28;20560;-83
2021/06/25 02:31:54;;;;;;;18.37;15.60;;;18.00;99.90;;;;;;5032699;28;20247;-82
2021/06/25 02:34:20;;;;;;;18.50;15.00;;;18.00;99.90;;;;;;5032899;28;20588;-83
2021/06/25 02:36:46;;;;;;;16.53;15.03;;;17.90;99.90;;;;;;5035881;28;20622;-84
2021/06/25 02:39:13;;;;;;;18.93;14.33;;;17.90;99.90;;;;;;5032462;28;20170;-83
2021/06/25 02:41:39;;;;;;;16.00;14.40;;;17.90;99.90;;;;;;5034270;28;20730;-83
2021/06/25 02:44:05;;;;;;;15.47;13.90;;;17.90;99.90;;;;;;5037576;28;20567;-84
2021/06/25 02:46:31;;;;;;;16.17;14.67;;;17.90;99.90;;;;;;5038797;28;20615;-84
2021/06/25 02:48:57;;;;;;;17.80;14.87;;;17.80;99.90;;;;;;5036892;28;20572;-84
2021/06/25 02:51:23;;;;;;;15.20;13.80;;;17.80;99.90;;;;;;5037974;28;20197;-84
2021/06/25 02:53:48;;;;;;;16.33;14.77;;;17.80;99.90;;;;;;5017854;28;20386;-83
2021/06/25 02:56:14;;;;;;;17.30;15.70;;;17.80;99.90;;;;;;5032625;28;20256;-83
2021/06/25 02:58:40;;;;;;;16.20;14.53;;;17.80;99.90;;;;;;5032326;28;20161;-83
2021/06/25 03:01:05;;;;;;;14.47;13.13;;;17.80;99.90;;;;;;4999675;28;20209;-84
2021/06/25 03:03:31;;;;;;;16.90;15.40;;;17.80;99.90;;;;;;5034065;28;20600;-85
2021/06/25 03:05:57;;;;;;;16.70;15.00;;;17.80;99.90;;;;;;5032753;28;20161;-84
2021/06/25 03:08:23;;;;;;;16.63;14.93;;;17.80;99.90;;;;;;5031730;28;20201;-83
2021/06/25 03:10:50;;;;;;;16.10;14.50;;;17.80;99.90;;;;;;5032730;28;20185;-84
2021/06/25 03:13:17;;;;;;;16.00;14.40;;;17.80;99.90;;;;;;5018854;28;20161;-83
2021/06/25 03:15:43;;;;;;;15.37;13.77;;;17.80;99.90;;;;;;5014353;28;20933;-82
2021/06/25 03:18:09;;;;;;;15.40;13.83;;;17.80;99.90;;;;;;5031996;28;20795;-83
2021/06/25 03:20:35;;;;;;;17.33;14.33;;;17.80;99.90;;;;;;5032031;28;20715;-83
2021/06/25 03:23:01;;;;;;;14.80;13.40;;;17.80;99.90;;;;;;5032101;28;20630;-83
2021/06/25 03:25:27;;;;;;;16.43;14.83;;;17.80;99.90;;;;;;5014142;28;20952;-83
2021/06/25 03:27:53;;;;;;;15.63;13.83;;;17.80;99.90;;;;;;5031669;28;20569;-81
2021/06/25 03:30:19;;;;;;;15.07;13.67;;;17.80;99.90;;;;;;5032042;28;20606;-82
2021/06/25 03:32:45;;;;;;;16.23;14.73;;;17.80;99.90;;;;;;5030991;28;20615;-82
2021/06/25 03:35:12;;;;;;;16.07;14.60;;;17.70;99.90;;;;;;5014510;28;20572;-83
2021/06/25 03:37:38;;;;;;;17.10;15.40;;;17.70;99.90;;;;;;5032084;28;20900;-82
2021/06/25 03:40:14;;;;;;;15.60;14.10;;;17.70;99.90;;;;;;5014038;28;20965;-82
2021/06/25 03:42:42;;;;;;;15.57;13.73;;;17.70;99.90;;;;;;5031787;28;20636;-82
2021/06/25 03:45:13;;;;;;;18.03;16.07;;;17.60;99.90;;;;;;5031967;28;20630;-82
2021/06/25 03:47:40;;;;;;;14.80;13.30;;;17.60;99.90;;;;;;5031821;28;20604;-83
2021/06/25 03:50:07;;;;;;;16.63;15.03;;;17.60;99.90;;;;;;5036662;28;21025;-83
2021/06/25 03:52:33;;;;;;;17.80;15.90;;;17.60;99.90;;;;;;5035429;28;20631;-85
2021/06/25 03:54:58;;;;;;;17.53;15.23;;;17.60;99.90;;;;;;5047519;28;20576;-84
2021/06/25 03:57:24;;;;;;;18.70;16.60;;;17.70;99.90;;;;;;5036458;28;20249;-83
2021/06/25 03:59:50;;;;;;;16.93;15.17;;;17.70;99.90;;;;;;5031416;28;20177;-83
2021/06/25 04:02:16;;;;;;;17.07;15.37;;;17.80;99.90;;;;;;5032034;28;20193;-84
2021/06/25 04:04:44;;;;;;;16.17;14.70;;;17.80;99.90;;;;;;5014123;28;20170;-83
2021/06/25 04:07:10;;;;;;;16.43;14.93;;;17.90;99.90;;;;;;5031517;28;20565;-83
2021/06/25 04:09:37;;;;;;;19.07;17.17;;;17.90;99.90;;;;;;4997263;28;20580;-83
2021/06/25 04:12:04;;;;;;;17.50;15.77;;;18.00;99.90;;;;;;5031413;28;20228;-83
2021/06/25 04:14:29;;;;;;;18.00;16.20;;;18.00;99.90;;;;;;5031528;28;20571;-83
2021/06/25 04:16:58;;;;;;;16.90;15.33;;;18.10;99.90;;;;;;5031358;28;20667;-83
2021/06/25 04:19:23;;;;;;;15.70;13.70;;;18.10;99.90;;;;;;5013728;28;21238;-84
2021/06/25 04:21:49;;;;;;;18.03;16.33;;;18.20;99.90;;;;;;5031211;28;20212;-83
2021/06/25 04:24:15;;;;;;;16.30;14.80;;;18.20;99.90;;;;;;5031572;28;20252;-84
2021/06/25 04:26:43;;;;;;;17.73;13.87;;;18.30;99.90;;;;;;5033627;28;20528;-82
2021/06/25 04:29:14;;;;;;;15.97;14.40;;;18.30;99.90;;;;;;5013410;28;20170;-84
2021/06/25 04:31:43;;;;;;;17.03;15.37;;;18.40;99.90;;;;;;5013918;28;20620;-84
2021/06/25 04:34:10;;;;;;;16.17;14.77;;;18.50;99.90;;;;;;5031079;28;20584;-84
2021/06/25 04:36:36;;;;;;;16.23;14.50;;;18.60;99.90;;;;;;5032994;28;20626;-80
2021/06/25 04:39:04;;;;;;;22.20;16.30;;;18.60;99.90;;;;;;5016652;28;20579;-81
2021/06/25 04:41:32;;;;;;;17.33;15.47;;;18.70;99.90;;;;;;5032821;28;20223;-81
2021/06/25 04:43:58;;;;;;;18.93;17.13;;;18.80;99.90;;;;;;5031906;28;20619;-80
2021/06/25 04:46:24;;;;;;;18.00;16.30;;;18.80;99.90;;;;;;5032149;28;20592;-80
2021/06/25 04:48:49;;;;;;;17.87;16.17;;;18.80;99.90;;;;;;5030706;28;20220;-81
2021/06/25 04:51:15;;;;;;;18.93;17.03;;;18.90;99.90;;;;;;5031408;28;20726;-82
2021/06/25 04:53:41;;;;;;;16.50;14.83;;;19.00;99.90;;;;;;5016693;28;20324;-81
2021/06/25 04:56:07;;;;;;;18.90;16.90;;;19.00;99.90;;;;;;5034589;28;20174;-81
2021/06/25 04:58:33;;;;;;;20.20;18.00;;;19.20;99.90;;;;;;5034271;28;20170;-82
2021/06/25 05:00:59;;;;;;;20.00;18.10;;;19.20;99.90;;;;;;5034685;28;20209;-83
2021/06/25 05:03:25;;;;;;;20.30;18.30;;;19.20;99.90;;;;;;5038572;28;20154;-82
2021/06/25 05:05:51;;;;;;;22.37;19.20;;;19.30;99.90;;;;;;5035715;28;20568;-82
2021/06/25 05:08:17;;;;;;;18.90;17.20;;;19.30;99.90;;;;;;5033393;28;20575;-82
2021/06/25 05:10:42;;;;;;;18.90;17.10;;;19.30;99.90;;;;;;5034939;28;20190;-82
2021/06/25 05:13:10;;;;;;;18.60;16.90;;;19.50;99.90;;;;;;5034340;28;20578;-80
2021/06/25 05:15:37;;;;;;;21.43;18.20;;;19.60;99.90;;;;;;5000892;28;20216;-81
2021/06/25 05:18:12;;;;;;;19.23;17.37;;;19.70;99.90;;;;;;5035170;28;20576;-81
2021/06/25 05:20:39;;;;;;;20.57;18.67;;;19.70;99.90;;;;;;5016688;28;20541;-81
2021/06/25 05:23:04;;;;;;;20.80;18.83;;;19.80;99.90;;;;;;5015854;28;20663;-81
2021/06/25 05:25:30;;;;;;;19.53;17.60;;;19.90;99.90;;;;;;5034149;28;20953;-82
2021/06/25 05:27:56;;;;;;;20.47;18.47;;;20.00;99.90;;;;;;5016105;28;20197;-81
2021/06/25 05:30:21;;;;;;;20.00;17.60;;;20.20;99.90;;;;;;5034105;28;20204;-82
2021/06/25 05:32:47;;;;;;;19.40;17.50;;;20.30;99.90;;;;;;5016433;28;20249;-82
2021/06/25 05:35:13;;;;;;;18.93;17.23;;;20.40;99.90;;;;;;5034091;28;20174;-83
2021/06/25 05:37:38;;;;;;;20.07;18.17;;;20.50;99.90;;;;;;5034164;28;20588;-81
2021/06/25 05:40:05;;;;;;;19.57;17.53;;;20.60;99.90;;;;;;5036087;28;20256;-81
2021/06/25 05:42:31;;;;;;;19.67;17.47;;;20.70;99.90;;;;;;5016523;28;20209;-82
2021/06/25 05:44:56;;;;;;;21.90;19.70;;;20.80;99.90;;;;;;5022492;28;20572;-80
2021/06/25 05:47:22;;;;;;;22.27;18.60;;;21.00;99.90;;;;;;5034858;28;20166;-82
2021/06/25 05:49:54;;;;;;;18.83;16.50;;;21.40;99.90;;;;;;5040872;28;20186;-80
2021/06/25 05:52:20;;;;;;;23.30;16.43;;;21.70;99.90;;;;;;5041190;22;20305;-74
2021/06/25 05:54:46;;;;;;;19.03;17.33;;;22.10;99.90;;;;;;4991125;28;20738;-75
2021/06/25 05:57:12;;;;;;;18.73;16.90;;;22.60;99.90;;;;;;4986769;28;20172;-73
2021/06/25 05:59:37;;;;;;;16.00;14.57;;;23.20;99.90;;;;;;4957440;28;20168;-73
2021/06/25 06:02:03;;;;;;;16.27;14.67;;;24.00;99.90;;;;;;4971406;28;20650;-73
2021/06/25 06:04:29;;;;;;;17.20;15.53;;;24.80;99.90;;;;;;4968926;28;20176;-73
2021/06/25 06:06:55;;;;;;;16.13;14.83;;;25.60;99.90;;;;;;4937566;28;20989;-74
2021/06/25 06:09:21;;;;;;;14.77;13.40;;;26.40;99.90;;;;;;4953659;28;20572;-74
2021/06/25 06:11:47;;;;;;;14.90;13.50;;;27.20;99.90;;;;;;4954859;28;20630;-74
2021/06/25 06:14:13;;;;;;;14.10;12.70;;;27.90;99.90;;;;;;4954948;28;20659;-75
2021/06/25 06:16:39;;;;;;;14.00;12.60;;;28.60;99.90;;;;;;4969585;28;20583;-74
2021/06/25 06:19:05;;;;;;;13.33;12.10;;;29.20;99.90;;;;;;4969403;28;20176;-75
2021/06/25 06:31:10;;;;;;;15.30;13.80;;;29.90;99.90;;;;;;4969618;28;20568;-75
2021/06/25 06:32:39;;;;;;;12.97;11.87;;;31.90;99.50;;;;;;4954487;28;20611;-74
2021/06/25 06:35:05;;;;;;;11.33;10.33;;;32.10;97.70;;;;;;4958683;29;20572;-75
2021/06/25 06:37:31;;;;;;;11.70;10.50;;;32.20;96.20;;;;;;4961723;28;21193;-74
2021/06/25 06:39:56;;;;;;;10.70;9.80;;;32.20;95.10;;;;;;4962940;28;20190;-74
2021/06/25 06:42:22;;;;;;;10.80;9.90;;;32.30;94.20;;;;;;4980745;28;20646;-74
2021/06/25 06:44:48;;;;;;;11.17;9.50;;;32.40;92.70;;;;;;4964583;28;20590;-74
2021/06/25 06:47:14;;;;;;;9.70;8.90;;;32.60;92.30;;;;;;4977541;28;20166;-75
2021/06/25 06:49:39;;;;;;;8.30;7.50;;;32.80;91.40;;;;;;4977942;28;20225;-74
2021/06/25 06:52:06;;;;;;;8.70;7.93;;;33.10;90.40;;;;;;4962560;28;20244;-74
2021/06/25 06:54:32;;;;;;;8.03;7.40;;;33.30;88.50;;;;;;4977343;28;20194;-74
2021/06/25 06:56:58;;;;;;;8.27;7.57;;;33.60;86.20;;;;;;4963539;28;20712;-75
2021/06/25 06:59:24;;;;;;;7.87;7.13;;;33.80;83.10;;;;;;4963577;28;20630;-75
2021/06/25 07:01:49;;;;;;;7.87;7.10;;;34.10;81.70;;;;;;4960910;28;21196;-74
2021/06/25 07:04:15;;;;;;;10.03;6.90;;;34.50;80.50;;;;;;4978754;28;20182;-75
2021/06/25 07:06:41;;;;;;;7.10;6.50;;;34.90;78.40;;;;;;4935552;28;20175;-75
2021/06/25 07:09:07;;;;;;;7.67;7.07;;;35.30;76.40;;;;;;4987987;28;20168;-75
2021/06/25 07:11:33;;;;;;;7.73;7.03;;;35.70;74.40;;;;;;4976586;28;20183;-74
2021/06/25 07:13:58;;;;;;;9.10;6.53;;;35.90;71.90;;;;;;4973101;28;20200;-75
2021/06/25 07:16:24;;;;;;;8.37;7.67;;;36.20;69.70;;;;;;4973357;28;20659;-74
2021/06/25 07:18:49;;;;;;;7.20;6.47;;;36.30;67.90;;;;;;4987913;28;20255;-75
2021/06/25 07:21:18;;;;;;;7.17;5.97;;;36.50;66.70;;;;;;4973001;28;20195;-75
2021/06/25 07:23:44;;;;;;;7.53;6.83;;;36.70;64.40;;;;;;4971696;28;20561;-75
2021/06/25 07:26:10;;;;;;;6.97;6.37;;;36.80;62.40;;;;;;4987905;28;21045;-75
2021/06/25 07:28:36;;;;;;;7.27;6.53;;;37.00;61.20;;;;;;4972585;28;20613;-74
2021/06/25 07:31:03;;;;;;;6.90;6.17;;;37.20;60.10;;;;;;4987745;28;20174;-75
2021/06/25 07:33:29;;;;;;;8.37;5.60;;;37.50;59.60;;;;;;4972427;28;21127;-75
2021/06/25 07:35:55;;;;;;;6.97;6.37;;;37.70;57.90;;;;;;4972825;28;20618;-75
2021/06/25 07:38:21;;;;;;;5.70;5.27;;;37.90;56.30;;;;;;4939288;28;20941;-74
2021/06/25 07:40:47;;;;;;;7.00;6.00;;;38.10;55.70;;;;;;4972587;28;20575;-75
2021/06/25 07:43:12;;;;;;;5.47;4.97;;;38.30;55.30;;;;;;4972772;28;20211;-75
2021/06/25 07:45:41;;;;;;;5.40;5.00;;;38.50;54.80;;;;;;4985564;28;20179;-76
2021/06/25 07:48:07;;;;;;;5.73;5.13;;;38.70;53.50;;;;;;4974295;28;20602;-77
2021/06/25 07:50:33;;;;;;;6.07;5.50;;;38.70;52.10;;;;;;4987269;28;20187;-76
2021/06/25 07:52:59;;;;;;;5.20;4.80;;;38.80;51.60;;;;;;4972857;28;20629;-76
2021/06/25 07:55:24;;;;;;;6.13;5.67;;;38.80;51.00;;;;;;4988021;28;20182;-76
2021/06/25 07:57:52;;;;;;;7.50;4.57;;;38.90;50.50;;;;;;4971445;28;20178;-76
2021/06/25 08:00:18;;;;;;;9.80;6.27;;;39.00;50.00;;;;;;4987562;28;20575;-75
2021/06/25 08:02:44;;;;;;;6.40;5.90;;;39.10;49.60;;;;;;4987347;28;20775;-76
2021/06/25 08:05:10;;;;;;;5.80;5.30;;;39.20;49.80;;;;;;4987544;28;20178;-74
2021/06/25 08:07:36;;;;;;;5.43;5.00;;;39.40;49.40;;;;;;4972606;28;20584;-75
2021/06/25 08:10:03;;;;;;;5.93;5.43;;;39.50;48.80;;;;;;4955136;28;20711;-75
2021/06/25 08:12:29;;;;;;;5.47;4.97;;;39.50;48.20;;;;;;4987890;28;20614;-75
2021/06/25 08:14:57;;;;;;;6.97;5.70;;;39.40;47.10;;;;;;4987633;28;20587;-75
2021/06/25 08:17:25;;;;;;;6.17;5.57;;;39.00;46.10;;;;;;4972880;28;20186;-76
2021/06/25 08:19:50;;;;;;;6.80;5.53;;;38.50;45.30;;;;;;4972555;28;20583;-75
2021/06/25 08:22:16;;;;;;;6.23;5.70;;;37.90;45.40;;;;;;4987509;28;20696;-76
2021/06/25 08:24:42;;;;;;;5.67;5.17;;;37.80;45.70;;;;;;4991363;28;20182;-76
2021/06/25 08:27:07;;;;;;;5.13;4.63;;;37.70;46.10;;;;;;4973291;28;20179;-76
2021/06/25 08:29:33;;;;;;;5.00;4.60;;;37.70;45.90;;;;;;4976113;28;20172;-76
2021/06/25 08:31:59;;;;;;;5.53;5.13;;;37.50;45.40;;;;;;4975344;28;20190;-76
2021/06/25 08:34:25;;;;;;;5.53;5.00;;;37.20;45.00;;;;;;4976366;28;20267;-77
2021/06/25 08:36:51;;;;;;;5.73;5.30;;;36.90;44.80;;;;;;4991169;28;20179;-76
2021/06/25 08:39:16;;;;;;;5.27;4.77;;;36.70;45.00;;;;;;4976281;28;20176;-77
2021/06/25 08:41:43;;;;;;;5.53;4.80;;;36.40;44.50;;;;;;4976786;28;20697;-76
2021/06/25 08:44:11;;;;;;;6.40;5.80;;;35.90;44.20;;;;;;4970148;28;20591;-78
2021/06/25 08:46:45;;;;;;;8.30;6.30;;;35.20;43.80;;;;;;4960789;28;20590;-76
2021/06/25 08:49:10;;;;;;;6.03;5.37;;;34.70;44.30;;;;;;4955423;28;20619;-77
2021/06/25 08:51:37;;;;;;;5.73;5.33;;;34.70;45.60;;;;;;4971796;28;20965;-76
2021/06/25 08:54:03;;;;;;;5.73;5.20;;;34.90;45.80;;;;;;4971520;28;21090;-76
2021/06/25 08:56:32;;;;;;;5.77;4.73;;;35.30;46.20;;;;;;4923570;29;20687;-76
2021/06/25 08:58:58;;;;;;;4.60;4.20;;;35.70;46.10;;;;;;4939135;28;20187;-76
2021/06/25 09:01:25;;;;;;;5.33;4.07;;;36.00;45.40;;;;;;4960378;28;20649;-76
2021/06/25 09:03:53;;;;;;;5.50;5.00;;;36.10;45.10;;;;;;4939250;28;20613;-76
2021/06/25 09:06:19;;;;;;;4.80;4.40;;;36.00;44.00;;;;;;4956326;28;20584;-77
2021/06/25 09:08:45;;;;;;;5.20;4.70;;;35.80;43.50;;;;;;4938953;29;20590;-76
2021/06/25 09:11:26;;;;;;;4.50;4.10;;;35.60;43.70;;;;;;4956178;29;20591;-76
2021/06/25 09:14:03;;;;;;;4.10;3.80;;;35.80;43.50;;;;;;4973459;28;20615;-75
2021/06/25 09:16:31;;;;;;;5.90;5.30;;;36.20;44.00;;;;;;4973102;28;20595;-76
2021/06/25 09:19:12;;;;;;;4.60;4.30;;;36.60;44.70;;;;;;4941635;29;20682;-76
2021/06/25 09:21:41;;;;;;;9.90;4.03;;;36.90;44.00;;;;;;4971032;28;20631;-76
2021/06/25 09:24:21;;;;;;;3.90;3.50;;;37.20;44.00;;;;;;4955024;28;20639;-75
2021/06/25 09:26:48;;;;;;;3.80;3.50;;;37.50;43.00;;;;;;4954716;28;20580;-75
2021/06/25 09:29:27;;;;;;;6.30;5.43;;;37.70;42.60;;;;;;4954615;28;21003;-76
2021/06/25 09:32:02;;;;;;;3.93;3.63;;;37.80;41.80;;;;;;4970588;28;20682;-76
2021/06/25 09:34:45;;;;;;;4.83;4.33;;;37.70;41.50;;;;;;4970952;28;20587;-76
2021/06/25 09:37:15;;;;;;;5.03;4.53;;;37.50;41.20;;;;;;4973609;28;20588;-76
2021/06/25 09:40:02;;;;;;;6.77;3.80;;;37.20;41.00;;;;;;4955830;28;20587;-76
2021/06/25 09:42:28;;;;;;;5.47;3.90;;;37.20;41.30;;;;;;4954995;28;20658;-75
2021/06/25 09:45:03;;;;;;;4.60;4.20;;;37.30;41.50;;;;;;4955587;28;20575;-76
2021/06/25 09:47:32;;;;;;;4.93;3.60;;;37.40;41.40;;;;;;4955493;29;20907;-77
2021/06/25 09:50:15;;;;;;;4.47;4.07;;;37.60;41.60;;;;;;4970224;28;20576;-76
2021/06/25 09:52:59;;;;;;;4.20;3.83;;;37.90;40.70;;;;;;4970317;28;20642;-76
2021/06/25 09:55:29;;;;;;;5.60;3.97;;;38.10;40.80;;;;;;4970441;28;20956;-76
2021/06/25 10:01:25;;;;;;;4.00;3.70;;;38.30;39.30;;;;;;4955513;28;20584;-77
2021/06/25 10:03:56;;;;;;;4.70;3.90;;;38.00;39.80;;;;;;4970221;28;20623;-76
2021/06/25 10:06:27;;;;;;;5.03;4.63;;;37.60;39.20;;;;;;4969865;28;20567;-76
2021/06/25 10:08:53;;;;;;;5.57;5.13;;;37.40;39.50;;;;;;4955018;29;21125;-77
2021/06/25 10:11:25;;;;;;;4.73;4.33;;;37.10;39.30;;;;;;4970700;28;20675;-76
2021/06/25 10:13:53;;;;;;;6.63;4.90;;;36.80;39.30;;;;;;4956569;28;20607;-77
2021/06/25 10:16:20;;;;;;;5.73;5.23;;;36.20;38.60;;;;;;4971439;28;20586;-76
2021/06/25 10:18:50;;;;;;;6.10;5.57;;;35.50;38.60;;;;;;4969713;28;20579;-77
2021/06/25 10:21:25;;;;;;;5.33;4.83;;;34.80;38.80;;;;;;4969906;28;20962;-77
2021/06/25 10:23:53;;;;;;;6.60;5.90;;;34.10;39.30;;;;;;4969799;28;20607;-77
2021/06/25 10:26:20;;;;;;;5.37;4.97;;;33.60;40.00;;;;;;4954875;29;20568;-76
2021/06/25 10:28:48;;;;;;;7.43;5.40;;;33.40;41.50;;;;;;4969602;28;21148;-77
2021/06/25 10:31:22;;;;;;;6.07;5.57;;;33.50;41.60;;;;;;4969778;28;20589;-76
2021/06/25 10:33:53;;;;;;;5.20;4.80;;;33.70;41.50;;;;;;4969580;28;20663;-76
2021/06/25 10:36:22;;;;;;;5.07;4.67;;;34.00;41.50;;;;;;4969483;28;20609;-75
2021/06/25 10:38:49;;;;;;;5.13;4.70;;;34.20;41.90;;;;;;4969137;28;20579;-75
2021/06/25 10:41:16;;;;;;;5.67;5.17;;;34.60;42.30;;;;;;4954797;28;20609;-76
2021/06/25 10:43:43;;;;;;;5.30;4.80;;;34.90;41.40;;;;;;4969582;28;21049;-76
2021/06/25 10:46:32;;;;;;;5.80;4.63;;;35.00;40.70;;;;;;4954331;28;20577;-78
2021/06/25 10:53:02;;;;;;;6.20;4.97;;;34.60;40.60;;;;;;4963612;28;20688;-77
2021/06/25 10:55:28;;;;;;;5.80;5.40;;;34.70;41.30;;;;;;4968850;28;20621;-76
2021/06/25 10:57:54;;;;;;;5.93;5.43;;;34.80;41.50;;;;;;4953998;29;21183;-77
2021/06/25 11:00:54;;;;;;;4.90;4.50;;;34.90;41.30;;;;;;4937174;29;20628;-77
2021/06/25 11:03:37;;;;;;;5.73;5.23;;;35.10;41.70;;;;;;4968961;28;20203;-76
2021/06/25 11:06:10;;;;;;;5.33;4.50;;;35.20;40.90;;;;;;4952863;28;20597;-75
2021/06/25 11:08:56;;;;;;;6.30;5.80;;;35.20;40.70;;;;;;4952543;28;20590;-76
2021/06/25 11:11:28;;;;;;;5.63;5.07;;;34.90;40.10;;;;;;4968803;28;20780;-75
2021/06/25 11:13:54;;;;;;;5.93;5.33;;;34.50;40.10;;;;;;4952768;28;20613;-75
2021/06/25 11:16:21;;;;;;;5.43;4.80;;;34.10;40.10;;;;;;4954207;28;21189;-76
2021/06/25 11:18:47;;;;;;;5.60;5.20;;;33.70;40.20;;;;;;4953312;29;20215;-76
2021/06/25 11:21:12;;;;;;;5.97;5.50;;;33.20;40.30;;;;;;4954179;28;20680;-75
2021/06/25 11:23:38;;;;;;;6.27;5.23;;;32.80;40.10;;;;;;4952697;28;20740;-75
2021/06/25 11:26:14;;;;;;;5.50;5.07;;;32.40;40.60;;;;;;4954189;29;21580;-75
2021/06/25 11:28:40;;;;;;;8.47;4.80;;;32.30;41.30;;;;;;4988371;28;20650;-75
2021/06/25 11:31:13;;;;;;;5.47;4.60;;;32.20;42.20;;;;;;4972770;28;20670;-76
2021/06/25 11:33:48;;;;;;;6.20;5.70;;;32.20;42.60;;;;;;4971656;28;20622;-75
2021/06/25 11:36:14;;;;;;;5.93;5.43;;;32.30;42.30;;;;;;4972561;28;20639;-75
2021/06/25 11:39:05;;;;;;;6.33;5.70;;;32.30;42.50;;;;;;4971516;28;20631;-76
2021/06/25 11:41:34;;;;;;;5.37;4.90;;;32.30;42.30;;;;;;4972554;28;20178;-75
2021/06/25 11:44:19;;;;;;;9.47;5.27;;;32.40;42.20;;;;;;4973052;28;20631;-75
2021/06/25 11:47:00;;;;;;;5.73;5.20;;;32.30;42.40;;;;;;4971570;28;20629;-75
2021/06/25 11:50:02;;;;;;;5.70;5.30;;;32.20;42.70;;;;;;4955255;28;20973;-75
2021/06/25 11:52:26;;;;;;;6.80;6.30;;;32.30;43.40;;;;;;4972133;28;20651;-75
2021/06/25 11:54:58;;;;;;;5.80;5.30;;;32.50;43.50;;;;;;5089416;22;20673;-82
2021/06/25 11:57:28;;;;;;;5.93;5.53;;;32.70;43.50;;;;;;4998070;28;21131;-82
2021/06/25 12:00:08;;;;;;;5.63;5.20;;;32.90;43.30;;;;;;5062481;28;20685;-81
2021/06/25 12:02:49;;;;;;;5.57;5.17;;;33.00;43.20;;;;;;5053226;28;20637;-80
2021/06/25 12:05:25;;;;;;;5.80;5.30;;;33.20;43.10;;;;;;5021752;28;20598;-81
2021/06/25 12:08:14;;;;;;;11.13;5.50;;;33.30;42.30;;;;;;5021620;28;20577;-80
2021/06/25 12:10:42;;;;;;;6.40;5.60;;;33.30;42.70;;;;;;5018350;28;20600;-80
2021/06/25 12:13:08;;;;;;;5.60;5.10;;;33.40;42.40;;;;;;5000572;28;20650;-80
2021/06/25 12:15:43;;;;;;;5.23;4.83;;;33.40;42.60;;;;;;5019097;28;20670;-80
2021/06/25 12:18:21;;;;;;;8.23;5.67;;;33.40;42.20;;;;;;5002379;28;20587;-81
2021/06/25 12:20:48;;;;;;;5.60;5.10;;;33.40;41.80;;;;;;5002526;28;20584;-79
2021/06/25 12:23:13;;;;;;;7.10;5.73;;;33.30;41.00;;;;;;5018431;28;20639;-80
2021/06/25 12:25:52;;;;;;;5.70;5.20;;;33.10;41.10;;;;;;5021078;28;20609;-81
2021/06/25 12:28:22;;;;;;;6.63;6.03;;;33.00;41.30;;;;;;5005021;28;20567;-80
2021/06/25 12:30:54;;;;;;;6.07;5.60;;;32.80;41.30;;;;;;5006313;28;20959;-80
2021/06/25 12:33:25;;;;;;;7.83;7.20;;;32.70;41.50;;;;;;5022658;28;20614;-80
2021/06/25 12:35:54;;;;;;;6.67;6.00;;;32.50;41.70;;;;;;4970374;28;21171;-80
2021/06/25 12:38:25;;;;;;;6.63;6.10;;;32.30;41.90;;;;;;5003104;28;20640;-81
2021/06/25 12:40:56;;;;;;;6.70;6.00;;;32.20;42.00;;;;;;5009327;28;20597;-80
2021/06/25 12:43:32;;;;;;;6.50;5.93;;;32.10;41.60;;;;;;5022851;28;20653;-80
2021/06/25 12:46:05;;;;;;;7.53;6.83;;;31.90;41.90;;;;;;5025884;28;20572;-80
2021/06/25 12:48:33;;;;;;;8.90;6.87;;;31.60;41.50;;;;;;5023386;28;20589;-80
2021/06/25 12:51:17;;;;;;;8.17;7.43;;;31.40;41.60;;;;;;5002667;28;20583;-80
2021/06/25 12:53:49;;;;;;;9.43;8.27;;;31.20;41.80;;;;;;5016149;28;20667;-80
2021/06/25 12:56:23;;;;;;;9.37;8.40;;;31.10;42.20;;;;;;4987541;28;20577;-80
2021/06/25 12:59:15;;;;;;;8.40;7.70;;;31.00;42.30;;;;;;5001783;28;20589;-80